Time;durP1;ratioP1;P1;durP2;ratioP2;P2;SDS_P1;SDS_P2;PMS_P1;PMS_P2;Temp;Humidity;BMP_temperature;BMP_pressure;BME280_temperature;BME280_humidity;BME280_pressure;Samples;Min_cycle;Max_cycle;Signal;HPM_P1;HPM_P2
2022/09/16 00:00:19;;;;;;;25.50;3.37;;;;;;;15.30;64.89;99869.38;4938835;28;123129;-78
2022/09/16 00:02:45;;;;;;;29.00;3.53;;;;;;;15.29;64.61;99867.88;4942718;28;122212;-78
2022/09/16 00:05:11;;;;;;;21.73;3.43;;;;;;;15.33;63.78;99864.84;4924393;28;120882;-78
2022/09/16 00:07:37;;;;;;;36.88;3.75;;;;;;;15.36;64.88;99870.13;4888549;28;120578;-78
2022/09/16 00:10:04;;;;;;;29.83;3.45;;;;;;;15.39;63.36;99867.63;4890145;28;122409;-78
2022/09/16 00:12:30;;;;;;;27.27;2.95;;;;;;;15.39;64.14;99867.63;4904029;28;122909;-78
2022/09/16 00:14:55;;;;;;;26.00;3.37;;;;;;;15.41;62.81;99867.88;4905338;28;120234;-78
2022/09/16 00:17:21;;;;;;;32.40;3.70;;;;;;;15.43;64.06;99876.41;4926871;28;120218;-78
2022/09/16 00:19:49;;;;;;;34.50;3.70;;;;;;;15.43;63.40;99865.38;4885054;28;122944;-77
2022/09/16 00:22:16;;;;;;;34.40;3.67;;;;;;;15.45;64.14;99865.63;4940502;28;119807;-78
2022/09/16 00:24:41;;;;;;;24.15;3.58;;;;;;;15.42;63.59;99869.38;4926816;28;120104;-77
2022/09/16 00:27:07;;;;;;;19.67;3.23;;;;;;;15.43;63.14;99863.34;4918925;28;120120;-78
2022/09/16 00:29:33;;;;;;;23.87;3.10;;;;;;;15.45;64.30;99865.63;4926115;28;119840;-78
2022/09/16 00:31:59;;;;;;;17.02;2.78;;;;;;;15.48;62.50;99870.88;4921584;28;123406;-78
2022/09/16 00:34:25;;;;;;;24.77;2.92;;;;;;;15.48;63.15;99870.13;4941843;28;120516;-79
2022/09/16 00:36:52;;;;;;;21.53;3.00;;;;;;;15.48;61.51;99870.13;4926157;28;120346;-78
2022/09/16 00:39:17;;;;;;;23.87;3.40;;;;;;;15.47;62.34;99868.63;4916892;28;123518;-78
2022/09/16 00:41:43;;;;;;;20.67;2.77;;;;;;;15.45;62.62;99869.13;4903629;28;119677;-78
2022/09/16 00:44:46;;;;;;;36.58;3.67;;;;;;;15.45;60.81;99876.66;4941922;28;121174;-78
2022/09/16 00:47:15;;;;;;;20.52;2.95;;;;;;;15.43;62.37;99865.38;4944963;28;120027;-78
2022/09/16 00:49:42;;;;;;;16.02;2.58;;;;;;;15.43;61.85;99868.13;4923299;28;122424;-79
2022/09/16 00:52:08;;;;;;;24.25;3.58;;;;;;;15.40;60.85;99864.38;4922093;28;122961;-79
2022/09/16 00:54:36;;;;;;;20.38;3.15;;;;;;;15.44;62.16;99864.09;4925140;28;120381;-78
2022/09/16 00:57:03;;;;;;;16.02;2.90;;;;;;;15.40;60.28;99860.84;4935772;28;120188;-79
2022/09/16 00:59:32;;;;;;;30.37;3.70;;;;;;;15.46;60.95;99861.59;4916109;28;120238;-79
2022/09/16 01:02:05;;;;;;;34.15;4.00;;;;;;;15.53;61.53;99864.59;4926437;28;121492;-79
2022/09/16 01:04:40;;;;;;;33.55;3.47;;;;;;;15.59;62.97;99870.13;4909107;28;120883;-79
2022/09/16 01:07:06;;;;;;;17.57;3.17;;;;;;;15.56;61.96;99857.31;4911451;28;119891;-79
2022/09/16 01:09:33;;;;;;;21.10;2.92;;;;;;;15.56;61.38;99862.81;4912961;28;120419;-79
2022/09/16 01:11:58;;;;;;;24.80;3.53;;;;;;;15.56;60.63;99866.34;4906803;28;123330;-79
2022/09/16 01:17:43;;;;;;;21.47;3.20;;;;;;;15.49;60.21;99868.88;4907233;28;120295;-79
2022/09/16 01:20:33;;;;;;;32.20;3.47;;;;;;;15.46;59.83;99867.13;4933326;28;122312;-79
2022/09/16 01:23:35;;;;;;;23.50;3.50;;;;;;;15.44;60.97;99866.88;4922460;28;120496;-79
2022/09/16 01:26:39;;;;;;;18.75;3.53;;;;;;;15.38;60.58;99860.56;4914111;28;120569;-79
2022/09/16 01:29:42;;;;;;;25.05;3.05;;;;;;;15.38;62.69;99864.13;4911363;28;121506;-79
2022/09/16 01:32:16;;;;;;;26.97;3.50;;;;;;;15.35;63.06;99862.34;4934402;28;120167;-78
2022/09/16 01:34:57;;;;;;;26.53;3.70;;;;;;;15.33;62.78;99857.31;4936300;28;121393;-79
2022/09/16 01:37:22;;;;;;;34.42;3.80;;;;;;;15.38;62.81;99858.59;4903872;28;120181;-77
2022/09/16 01:39:56;;;;;;;24.73;3.20;;;;;;;15.41;63.72;99857.59;4937003;28;120654;-79
2022/09/16 01:42:48;;;;;;;33.67;3.37;;;;;;;15.51;63.84;99856.06;4906429;28;120837;-79
2022/09/16 01:45:37;;;;;;;35.10;3.90;;;;;;;15.59;63.38;99853.56;4937268;28;121507;-79
2022/09/16 01:48:19;;;;;;;27.08;3.15;;;;;;;15.55;62.72;99841.97;4920514;28;120695;-79
2022/09/16 01:50:58;;;;;;;21.77;3.00;;;;;;;15.67;62.89;99853.81;4934947;28;121301;-79
2022/09/16 01:53:32;;;;;;;30.77;3.70;;;;;;;15.67;62.76;99849.03;4921755;28;121492;-79
2022/09/16 01:56:02;;;;;;;41.13;3.55;;;;;;;15.68;62.18;99842.25;4937282;28;121576;-78
2022/09/16 01:59:01;;;;;;;32.38;3.28;;;;;;;15.63;62.58;99838.25;4921376;28;121297;-78
2022/09/16 02:01:38;;;;;;;31.35;3.53;;;;;;;15.68;63.24;99847.03;4917636;28;121429;-79
2022/09/16 02:04:12;;;;;;;18.60;2.75;;;;;;;15.63;62.37;99837.50;4902752;28;120299;-79
2022/09/16 02:06:42;;;;;;;19.87;2.97;;;;;;;15.65;62.65;99840.50;4921359;28;120277;-79
2022/09/16 02:09:22;;;;;;;20.73;3.05;;;;;;;15.63;63.21;99834.72;4904665;28;123263;-79
2022/09/16 02:11:50;;;;;;;19.90;3.00;;;;;;;15.64;63.15;99833.47;4925478;28;121077;-80
2022/09/16 02:14:40;;;;;;;25.40;3.15;;;;;;;15.72;62.82;99839.97;4920530;28;121714;-79
2022/09/16 02:17:09;;;;;;;30.88;3.53;;;;;;;15.75;62.11;99835.44;4923130;28;121554;-79
2022/09/16 02:19:44;;;;;;;34.05;3.70;;;;;;;15.71;62.59;99832.94;4927042;28;120374;-79
2022/09/16 02:22:16;;;;;;;32.65;3.55;;;;;;;15.69;62.11;99818.13;4931348;28;119919;-79
2022/09/16 02:24:45;;;;;;;25.23;3.20;;;;;;;15.67;62.77;99826.91;4925234;28;120429;-79
2022/09/16 02:27:20;;;;;;;21.30;3.38;;;;;;;15.67;63.16;99823.41;4905767;28;120949;-79
2022/09/16 02:29:51;;;;;;;40.65;3.40;;;;;;;15.68;62.63;99816.63;4923180;28;120431;-79
2022/09/16 02:32:19;;;;;;;29.80;3.10;;;;;;;15.70;62.78;99814.84;4889506;28;122393;-79
2022/09/16 02:34:49;;;;;;;29.03;3.80;;;;;;;15.75;63.18;99819.59;4904273;28;120094;-79
2022/09/16 02:37:20;;;;;;;27.17;3.05;;;;;;;15.79;63.35;99827.63;4908869;28;120853;-79
2022/09/16 02:39:49;;;;;;;21.63;2.90;;;;;;;15.78;62.16;99824.13;4918998;28;120363;-78
2022/09/16 02:42:15;;;;;;;22.13;2.60;;;;;;;15.77;63.27;99808.78;4928056;28;120720;-78
2022/09/16 02:44:44;;;;;;;25.13;3.28;;;;;;;15.83;63.55;99817.81;4924288;28;123595;-77
2022/09/16 02:47:26;;;;;;;22.50;3.07;;;;;;;15.88;63.52;99825.38;4931465;28;120562;-77
2022/09/16 02:49:59;;;;;;;20.77;3.17;;;;;;;15.91;62.77;99812.53;4920202;28;120722;-77
2022/09/16 02:52:37;;;;;;;17.33;2.67;;;;;;;15.95;63.36;99811.00;4909530;28;121599;-77
2022/09/16 02:55:26;;;;;;;24.00;3.63;;;;;;;15.95;63.41;99808.22;4924832;28;120799;-77
2022/09/16 02:57:52;;;;;;;27.58;3.63;;;;;;;16.01;63.12;99805.44;4921938;28;120644;-79
2022/09/16 03:00:17;;;;;;;13.95;2.40;;;;;;;15.98;62.23;99811.25;4909413;28;120040;-80
2022/09/16 03:02:43;;;;;;;15.67;2.73;;;;;;;16.06;60.98;99812.97;4926609;28;119888;-79
2022/09/16 03:05:09;;;;;;;20.20;3.23;;;;;;;16.00;61.04;99814.25;4930492;28;119937;-80
2022/09/16 03:07:38;;;;;;;16.80;2.67;;;;;;;15.98;60.04;99816.78;4943271;28;120936;-80
2022/09/16 03:10:04;;;;;;;30.95;2.90;;;;;;;15.90;61.78;99806.25;4936549;28;119813;-79
2022/09/16 03:12:35;;;;;;;36.10;3.47;;;;;;;15.83;62.94;99806.75;4908601;28;122810;-79
2022/09/16 03:15:23;;;;;;;40.90;3.58;;;;;;;15.84;62.77;99824.09;4926076;28;120023;-79
2022/09/16 03:18:04;;;;;;;24.90;3.00;;;;;;;15.79;62.75;99814.56;4929336;28;120699;-80
2022/09/16 03:21:08;;;;;;;24.52;3.13;;;;;;;15.73;63.30;99819.34;4946421;28;121675;-79
2022/09/16 03:24:20;;;;;;;26.60;3.33;;;;;;;15.74;64.17;99823.63;4926399;28;119887;-77
2022/09/16 03:27:03;;;;;;;21.48;2.70;;;;;;;15.75;63.54;99821.63;4924715;28;122157;-77
2022/09/16 03:29:54;;;;;;;31.10;3.13;;;;;;;15.77;63.37;99817.09;4945275;28;121028;-77
2022/09/16 03:32:29;;;;;;;18.10;3.22;;;;;;;15.78;62.55;99810.28;4925648;28;121797;-77
2022/09/16 03:35:05;;;;;;;31.17;3.60;;;;;;;15.72;63.55;99804.03;4927366;28;121247;-77
2022/09/16 03:37:34;;;;;;;39.22;3.75;;;;;;;15.67;63.17;99799.28;4938625;28;120387;-79
2022/09/16 03:40:06;;;;;;;29.35;3.65;;;;;;;15.73;64.46;99796.50;4909833;28;119912;-79
2022/09/16 03:42:32;;;;;;;25.98;3.45;;;;;;;15.72;64.14;99795.75;4909042;28;123342;-79
2022/09/16 03:44:58;;;;;;;26.30;3.28;;;;;;;15.71;64.11;99799.75;4909241;28;121143;-79
2022/09/16 03:47:24;;;;;;;21.98;3.28;;;;;;;15.67;63.91;99785.47;4924999;28;120522;-79
2022/09/16 03:49:50;;;;;;;34.53;3.75;;;;;;;15.69;64.26;99785.69;4908100;28;120154;-80
2022/09/16 03:52:17;;;;;;;39.07;3.80;;;;;;;15.67;63.07;99793.75;4930945;28;119759;-80
2022/09/16 03:54:43;;;;;;;28.53;3.40;;;;;;;15.69;63.70;99791.22;4925001;28;121362;-80
2022/09/16 03:57:09;;;;;;;23.43;3.13;;;;;;;15.72;63.50;99783.94;4925438;28;119746;-79
2022/09/16 03:59:34;;;;;;;15.47;2.37;;;;;;;15.75;63.16;99783.66;4924965;28;122651;-79
2022/09/16 04:02:00;;;;;;;21.30;3.47;;;;;;;15.76;62.89;99787.19;4908067;28;122137;-79
2022/09/16 04:04:26;;;;;;;23.03;3.23;;;;;;;15.80;63.50;99785.66;4919639;28;120393;-79
2022/09/16 04:06:52;;;;;;;25.83;3.07;;;;;;;15.80;62.28;99791.19;4916019;28;121735;-79
2022/09/16 04:09:17;;;;;;;23.80;2.97;;;;;;;15.86;62.78;99788.41;4913435;28;123056;-77
2022/09/16 04:11:43;;;;;;;37.60;4.03;;;;;;;15.87;63.43;99776.84;4931400;28;120400;-77
2022/09/16 04:14:09;;;;;;;28.07;3.23;;;;;;;15.91;62.18;99771.81;4937083;28;120141;-78
2022/09/16 04:16:35;;;;;;;29.65;3.75;;;;;;;15.95;62.10;99774.28;4918090;28;120598;-78
2022/09/16 04:19:01;;;;;;;27.20;3.53;;;;;;;15.93;62.01;99769.28;4930936;28;120069;-78
2022/09/16 04:21:26;;;;;;;26.60;3.03;;;;;;;15.89;62.24;99765.28;4915998;28;121251;-77
2022/09/16 04:23:53;;;;;;;15.60;2.57;;;;;;;15.92;63.23;99780.84;4915559;28;120153;-78
2022/09/16 04:26:19;;;;;;;18.40;2.88;;;;;;;15.87;61.68;99767.81;4914986;28;122146;-78
2022/09/16 04:28:46;;;;;;;22.07;2.97;;;;;;;15.88;61.89;99766.53;4913002;28;121460;-78
2022/09/16 04:31:14;;;;;;;16.90;2.90;;;;;;;15.86;61.94;99758.75;4933737;28;119975;-79
2022/09/16 04:33:41;;;;;;;19.65;2.72;;;;;;;15.83;61.18;99767.28;4917261;28;122194;-79
2022/09/16 04:36:12;;;;;;;24.33;2.92;;;;;;;15.80;61.28;99762.78;4900672;28;123019;-79
2022/09/16 04:38:42;;;;;;;13.70;2.38;;;;;;;15.79;61.08;99773.09;4931165;28;120360;-81
2022/09/16 04:41:19;;;;;;;15.52;2.30;;;;;;;15.78;59.81;99763.28;4930252;28;120670;-81
2022/09/16 04:43:46;;;;;;;17.33;2.37;;;;;;;15.82;60.96;99765.78;4937276;28;121164;-79
2022/09/16 04:46:12;;;;;;;18.52;2.00;;;;;;;15.81;60.52;99759.50;4938313;28;120289;-79
2022/09/16 04:48:38;;;;;;;15.75;2.10;;;;;;;15.85;60.34;99768.31;4928883;28;123488;-78
2022/09/16 04:51:09;;;;;;;20.55;2.72;;;;;;;15.84;61.37;99764.00;4929314;28;120114;-78
2022/09/16 04:53:37;;;;;;;19.83;2.15;;;;;;;15.85;60.17;99771.06;4915334;28;120119;-78
2022/09/16 04:56:08;;;;;;;18.63;2.20;;;;;;;15.89;61.14;99766.03;4912963;28;121377;-77
2022/09/16 04:58:34;;;;;;;22.02;2.35;;;;;;;15.89;61.56;99759.75;4925140;28;123091;-78
2022/09/16 05:01:05;;;;;;;19.58;2.50;;;;;;;15.94;60.36;99756.94;4920817;28;122935;-78
2022/09/16 05:03:31;;;;;;;20.95;2.03;;;;;;;16.01;61.29;99760.44;4908481;28;120002;-78
2022/09/16 05:06:09;;;;;;;17.25;2.13;;;;;;;16.03;61.70;99758.66;4903226;28;122081;-78
2022/09/16 05:08:35;;;;;;;21.53;2.43;;;;;;;16.03;61.33;99752.38;4940993;28;119929;-78
2022/09/16 05:11:06;;;;;;;17.30;2.92;;;;;;;16.08;61.68;99743.28;4901630;28;121416;-78
2022/09/16 05:13:32;;;;;;;26.07;2.60;;;;;;;16.13;61.65;99748.06;4936843;28;120360;-78
2022/09/16 05:16:12;;;;;;;33.28;2.92;;;;;;;16.17;61.83;99741.00;4933093;28;122855;-78
2022/09/16 05:18:40;;;;;;;18.58;2.70;;;;;;;16.23;60.78;99749.25;4926306;28;119818;-78
2022/09/16 05:21:08;;;;;;;15.48;2.42;;;;;;;16.24;61.77;99750.75;4930776;28;120104;-78
2022/09/16 05:23:34;;;;;;;15.50;2.17;;;;;;;16.25;61.04;99741.94;4932001;28;120369;-78
2022/09/16 05:26:05;;;;;;;21.00;2.60;;;;;;;16.28;61.80;99740.16;4916485;28;122624;-78
2022/09/16 05:28:32;;;;;;;27.23;2.72;;;;;;;16.28;61.91;99746.47;4904769;28;122881;-77
2022/09/16 05:31:18;;;;;;;21.05;2.63;;;;;;;16.31;61.93;99732.84;4914697;28;119997;-78
2022/09/16 05:34:15;;;;;;;19.67;2.67;;;;;;;16.32;61.81;99735.09;4922971;28;120336;-80
2022/09/16 05:36:42;;;;;;;16.90;2.47;;;;;;;16.32;61.29;99734.34;4890788;28;120029;-78
2022/09/16 05:39:12;;;;;;;19.38;2.20;;;;;;;16.40;61.74;99740.88;4931096;28;119860;-79
2022/09/16 05:41:38;;;;;;;20.98;2.35;;;;;;;16.42;60.65;99743.88;4934211;28;123281;-80
2022/09/16 05:44:07;;;;;;;13.20;2.23;;;;;;;16.40;60.82;99747.16;4915786;28;120075;-79
2022/09/16 05:46:34;;;;;;;16.20;2.20;;;;;;;16.39;62.46;99744.91;4900671;28;122184;-79
2022/09/16 05:49:00;;;;;;;19.70;2.40;;;;;;;16.40;62.78;99749.91;4937939;28;120347;-79
2022/09/16 05:51:26;;;;;;;19.13;2.30;;;;;;;16.39;62.63;99742.13;4938657;28;121629;-80
2022/09/16 05:53:53;;;;;;;19.83;2.90;;;;;;;16.35;62.25;99728.56;4901351;28;122237;-79
2022/09/16 05:56:21;;;;;;;24.77;2.80;;;;;;;16.38;62.69;99738.63;4937492;28;121094;-78
2022/09/16 05:58:47;;;;;;;29.52;2.90;;;;;;;16.35;62.95;99728.56;4938427;28;120535;-80
2022/09/16 06:01:16;;;;;;;23.20;2.60;;;;;;;16.36;63.15;99726.56;4923077;28;120675;-79
2022/09/16 06:03:43;;;;;;;16.52;2.67;;;;;;;16.36;63.25;99724.53;4909441;28;123426;-79
2022/09/16 06:06:11;;;;;;;17.80;2.35;;;;;;;16.37;64.37;99725.28;4922265;28;121985;-78
2022/09/16 06:08:41;;;;;;;37.28;3.13;;;;;;;16.34;64.09;99721.53;4906209;28;126518;-79
2022/09/16 06:11:09;;;;;;;29.48;3.00;;;;;;;16.37;65.00;99726.03;4922765;28;120635;-78
2022/09/16 06:14:14;;;;;;;29.63;2.75;;;;;;;16.39;64.66;99723.50;4917752;28;120650;-80
2022/09/16 06:16:43;;;;;;;11.07;2.20;;;;;;;16.44;64.11;99719.94;4922966;28;123136;-79
2022/09/16 06:19:12;;;;;;;11.50;2.00;;;;;;;16.50;64.07;99728.97;4907670;28;121071;-79
2022/09/16 06:21:39;;;;;;;12.43;2.10;;;;;;;16.53;63.27;99718.88;4939103;28;122427;-78
2022/09/16 06:24:08;;;;;;;15.37;2.20;;;;;;;16.52;63.35;99722.91;4922728;28;119995;-79
2022/09/16 06:26:40;;;;;;;9.52;1.77;;;;;;;16.53;63.63;99721.63;4911172;28;121784;-78
2022/09/16 06:29:07;;;;;;;19.75;2.47;;;;;;;16.60;63.50;99717.59;4907915;28;121275;-78
2022/09/16 06:31:34;;;;;;;12.93;2.10;;;;;;;16.60;63.25;99712.03;4922166;28;120196;-79
2022/09/16 06:33:59;;;;;;;13.23;2.20;;;;;;;16.53;63.37;99711.31;4923246;28;122138;-80
2022/09/16 06:36:30;;;;;;;24.73;2.77;;;;;;;16.57;64.10;99714.59;4921541;28;120227;-79
2022/09/16 06:38:56;;;;;;;14.13;2.13;;;;;;;16.62;64.38;99696.41;4904829;28;119835;-79
2022/09/16 06:41:23;;;;;;;10.52;1.70;;;;;;;16.78;64.00;99703.09;4918567;28;120614;-78
2022/09/16 06:43:52;;;;;;;18.07;2.03;;;;;;;16.88;64.62;99704.28;4918820;28;120351;-79
2022/09/16 06:46:24;;;;;;;22.10;2.43;;;;;;;16.99;64.01;99700.66;4933095;28;120832;-81
2022/09/16 06:48:51;;;;;;;12.90;2.10;;;;;;;17.06;63.67;99694.56;4921098;28;121076;-79
2022/09/16 06:51:22;;;;;;;23.98;2.88;;;;;;;17.19;63.37;99700.94;4905035;28;120326;-79
2022/09/16 06:53:49;;;;;;;11.98;2.10;;;;;;;17.21;62.85;99683.06;4923085;28;121216;-79
2022/09/16 06:56:36;;;;;;;24.25;2.50;;;;;;;17.30;63.38;99707.66;4920521;28;120750;-79
2022/09/16 06:59:02;;;;;;;11.82;2.08;;;;;;;17.37;62.82;99707.81;4922764;28;120041;-79
2022/09/16 07:01:29;;;;;;;20.65;2.58;;;;;;;17.42;62.67;99711.78;4922910;28;119673;-79
2022/09/16 07:03:57;;;;;;;19.85;2.60;;;;;;;17.37;62.97;99707.06;4905224;28;123453;-79
2022/09/16 07:06:26;;;;;;;20.20;2.65;;;;;;;17.32;64.43;99702.34;4919667;28;120197;-79
2022/09/16 07:08:53;;;;;;;31.03;3.23;;;;;;;17.29;65.06;99693.06;4899480;28;121839;-79
2022/09/16 07:11:20;;;;;;;15.25;2.50;;;;;;;17.30;64.64;99699.34;4921262;28;119925;-80
2022/09/16 07:13:48;;;;;;;20.95;2.45;;;;;;;17.31;64.83;99696.06;4920597;28;122277;-79
2022/09/16 07:16:16;;;;;;;19.80;2.53;;;;;;;17.38;65.19;99703.03;4919237;28;122815;-79
2022/09/16 07:18:43;;;;;;;19.58;2.70;;;;;;;17.42;65.50;99684.81;4921404;28;120451;-79
2022/09/16 07:21:11;;;;;;;26.65;3.00;;;;;;;17.53;65.57;99695.06;4906848;28;122019;-80
2022/09/16 07:23:38;;;;;;;17.30;2.40;;;;;;;17.54;64.22;99693.03;4922693;28;123062;-79
2022/09/16 07:26:14;;;;;;;30.00;3.30;;;;;;;17.45;64.19;99696.88;4905643;28;119958;-79
2022/09/16 07:28:41;;;;;;;32.22;3.55;;;;;;;17.32;65.23;99689.25;4923746;28;120985;-79
2022/09/16 07:31:12;;;;;;;25.67;2.80;;;;;;;17.29;66.08;99700.63;4927771;28;120329;-80
2022/09/16 07:33:41;;;;;;;17.88;2.60;;;;;;;17.22;65.93;99699.16;4904523;28;120799;-79
2022/09/16 07:36:08;;;;;;;17.30;3.00;;;;;;;17.15;65.61;99706.03;4918832;28;121306;-79
2022/09/16 07:38:34;;;;;;;22.15;3.00;;;;;;;17.09;66.32;99705.34;4936578;28;120116;-79
2022/09/16 07:41:06;;;;;;;20.73;2.60;;;;;;;17.05;66.96;99710.44;4937381;28;120027;-78
2022/09/16 07:43:31;;;;;;;22.85;2.67;;;;;;;17.03;66.59;99701.84;4913702;28;121530;-80
2022/09/16 07:45:57;;;;;;;26.73;2.97;;;;;;;16.98;66.32;99705.44;4902883;28;120410;-79
2022/09/16 07:48:24;;;;;;;16.85;2.38;;;;;;;16.96;66.54;99712.75;4917034;28;122064;-80
2022/09/16 07:51:20;;;;;;;20.17;2.77;;;;;;;16.90;66.45;99704.50;4917126;28;124934;-79
2022/09/16 07:53:47;;;;;;;17.60;2.50;;;;;;;16.80;66.39;99698.56;4920886;28;121145;-79
2022/09/16 07:56:17;;;;;;;18.33;2.50;;;;;;;16.74;66.86;99708.91;4916357;28;122891;-78
2022/09/16 07:59:04;;;;;;;23.73;3.15;;;;;;;16.69;67.00;99701.41;4918383;28;120953;-79
2022/09/16 08:01:30;;;;;;;19.27;2.50;;;;;;;16.67;67.68;99697.66;4902891;28;120507;-79
2022/09/16 08:03:56;;;;;;;24.17;2.83;;;;;;;16.64;67.71;99688.34;4916246;28;121859;-79
2022/09/16 08:06:45;;;;;;;13.03;2.23;;;;;;;16.60;67.23;99687.88;4860988;28;120504;-79
2022/09/16 08:09:10;;;;;;;22.17;2.70;;;;;;;16.56;68.39;99684.63;4863251;28;123288;-78
2022/09/16 08:11:36;;;;;;;21.20;3.20;;;;;;;16.60;68.13;99689.91;4860380;28;123094;-79
2022/09/16 08:14:02;;;;;;;23.27;3.00;;;;;;;16.63;68.69;99697.16;4862048;28;120254;-79
2022/09/16 08:16:56;;;;;;;41.10;4.07;;;;;;;16.66;68.77;99687.81;4851569;28;120564;-80
2022/09/16 08:19:22;;;;;;;33.70;3.00;;;;;;;16.71;68.51;99689.81;4849257;28;120089;-79
2022/09/16 08:22:22;;;;;;;20.27;2.90;;;;;;;16.73;68.31;99679.72;4800648;28;119978;-79
2022/09/16 08:24:48;;;;;;;27.83;3.25;;;;;;;16.72;68.12;99666.41;4784700;29;122983;-79
2022/09/16 08:27:13;;;;;;;20.35;2.85;;;;;;;16.74;67.46;99681.22;4802427;29;119851;-78
2022/09/16 08:29:39;;;;;;;21.92;3.00;;;;;;;16.76;68.48;99678.69;4786788;29;120668;-79
2022/09/16 08:32:04;;;;;;;23.13;3.33;;;;;;;16.76;68.08;99678.69;4782469;29;125016;-80
2022/09/16 08:34:30;;;;;;;47.63;4.63;;;;;;;16.85;68.73;99672.09;4797128;29;120588;-79
2022/09/16 08:37:14;;;;;;;47.00;4.03;;;;;;;16.96;68.31;99674.72;4785469;29;120728;-80
2022/09/16 08:39:43;;;;;;;47.85;4.40;;;;;;;17.01;69.22;99665.63;4781008;29;121138;-79
2022/09/16 08:42:35;;;;;;;47.22;4.50;;;;;;;17.07;68.36;99669.09;4798004;28;121359;-79
2022/09/16 08:45:41;;;;;;;34.25;4.53;;;;;;;17.16;68.11;99674.28;4851580;28;122320;-80
2022/09/16 08:48:12;;;;;;;33.50;4.05;;;;;;;17.11;67.54;99663.25;4826993;28;120129;-80
2022/09/16 08:50:41;;;;;;;32.45;3.90;;;;;;;17.09;67.43;99669.31;4845287;28;120518;-80
2022/09/16 08:53:14;;;;;;;38.97;3.95;;;;;;;17.06;68.07;99669.63;4838986;28;122770;-79
2022/09/16 08:55:45;;;;;;;34.45;3.97;;;;;;;17.04;68.88;99659.06;4844846;28;121028;-80
2022/09/16 08:58:24;;;;;;;33.50;3.72;;;;;;;17.06;68.63;99661.31;4825418;28;121184;-79
2022/09/16 09:01:01;;;;;;;27.40;3.58;;;;;;;17.11;68.64;99666.78;4826557;28;120473;-78
2022/09/16 09:03:29;;;;;;;34.33;3.78;;;;;;;17.19;68.22;99670.47;4831153;28;120780;-78
2022/09/16 09:05:57;;;;;;;20.70;3.05;;;;;;;17.16;68.28;99654.88;4845113;28;122925;-79
2022/09/16 09:08:54;;;;;;;29.05;3.65;;;;;;;17.33;68.91;99653.97;4815501;28;120770;-79
2022/09/16 09:12:02;;;;;;;25.80;3.42;;;;;;;17.43;68.62;99647.53;4829418;28;120554;-80
2022/09/16 09:14:49;;;;;;;19.33;2.80;;;;;;;17.62;68.00;99646.78;4845997;28;121398;-79
2022/09/16 09:17:40;;;;;;;14.13;2.25;;;;;;;17.72;67.65;99647.94;4848701;28;121077;-79
2022/09/16 09:20:21;;;;;;;14.80;2.10;;;;;;;17.88;67.22;99640.66;4844492;28;120194;-79
2022/09/16 09:23:17;;;;;;;39.42;3.40;;;;;;;18.01;67.82;99635.94;4846235;28;121702;-78
2022/09/16 09:25:53;;;;;;;17.98;2.85;;;;;;;18.19;67.23;99628.84;4850133;28;121247;-79
2022/09/16 09:28:40;;;;;;;29.52;2.85;;;;;;;18.39;66.96;99630.31;4832795;28;122162;-79
2022/09/16 09:31:26;;;;;;;20.00;2.53;;;;;;;18.61;66.26;99618.06;4848714;28;120306;-79
2022/09/16 09:34:24;;;;;;;27.45;2.88;;;;;;;18.78;65.75;99613.00;4864433;28;122123;-78
2022/09/16 09:37:08;;;;;;;18.88;2.25;;;;;;;18.99;65.41;99622.22;4832128;28;121043;-79
2022/09/16 09:39:52;;;;;;;33.40;3.10;;;;;;;19.09;64.29;99605.84;4830904;28;120958;-79
2022/09/16 09:42:36;;;;;;;32.50;3.00;;;;;;;19.16;65.93;99601.66;4849723;28;120406;-79
2022/09/16 09:45:43;;;;;;;11.77;2.27;;;;;;;19.26;63.40;99599.97;4804641;29;120741;-80
2022/09/16 09:48:24;;;;;;;13.27;2.07;;;;;;;19.26;62.69;99597.94;4837185;28;123088;-79
2022/09/16 09:50:52;;;;;;;21.67;2.50;;;;;;;19.23;63.78;99589.91;4851899;28;122329;-79
2022/09/16 09:53:31;;;;;;;18.63;2.40;;;;;;;19.23;63.16;99582.31;4832066;28;120560;-80
2022/09/16 09:56:07;;;;;;;21.55;2.97;;;;;;;19.23;62.47;99576.75;4847771;28;122630;-80
2022/09/16 09:58:43;;;;;;;17.10;2.55;;;;;;;19.18;63.55;99572.06;4815832;28;122067;-80
2022/09/16 10:01:10;;;;;;;12.97;2.63;;;;;;;19.20;62.74;99569.50;4865071;28;121785;-79
2022/09/16 10:03:55;;;;;;;23.60;3.40;;;;;;;19.17;62.64;99578.16;4863935;28;120521;-79
2022/09/16 10:06:27;;;;;;;19.73;2.53;;;;;;;19.16;63.20;99571.84;4844679;28;123569;-79
2022/09/16 10:08:56;;;;;;;34.30;3.57;;;;;;;19.27;64.21;99560.50;4851880;28;121472;-80
2022/09/16 10:11:25;;;;;;;21.88;2.78;;;;;;;19.33;63.19;99557.59;4841908;28;120954;-80
2022/09/16 10:14:22;;;;;;;15.75;2.97;;;;;;;19.28;63.28;99542.53;4850572;28;122291;-83
2022/09/16 10:16:50;;;;;;;22.63;2.90;;;;;;;19.27;63.51;99563.28;4831739;28;120754;-79
2022/09/16 10:19:18;;;;;;;20.25;3.17;;;;;;;19.26;63.28;99553.44;4842804;28;120165;-79
2022/09/16 10:21:52;;;;;;;13.65;2.50;;;;;;;19.29;62.15;99551.63;4844224;28;120607;-80
2022/09/16 10:24:40;;;;;;;16.63;2.45;;;;;;;19.23;62.66;99559.34;4830714;28;121459;-81
2022/09/16 10:27:36;;;;;;;32.03;3.50;;;;;;;19.16;63.79;99559.97;4855827;28;120184;-79
2022/09/16 10:30:23;;;;;;;16.35;2.80;;;;;;;19.19;64.39;99550.59;4840349;28;121828;-79
2022/09/16 10:32:56;;;;;;;22.85;2.50;;;;;;;19.25;62.56;99556.75;4830180;28;122220;-80
2022/09/16 10:35:25;;;;;;;15.10;2.42;;;;;;;19.25;62.19;99551.22;4816014;28;121221;-81
2022/09/16 10:37:55;;;;;;;11.68;2.17;;;;;;;19.25;61.57;99551.22;4863904;28;120171;-81
2022/09/16 10:40:22;;;;;;;18.15;2.65;;;;;;;19.13;61.79;99533.25;4829261;28;121963;-80
2022/09/16 10:42:51;;;;;;;15.95;2.60;;;;;;;19.18;62.00;99552.63;4860843;28;121234;-81
2022/09/16 10:45:26;;;;;;;24.97;2.63;;;;;;;19.27;63.21;99537.50;4842415;28;121254;-80
2022/09/16 10:47:59;;;;;;;13.80;2.30;;;;;;;19.39;62.22;99524.84;4839763;28;121848;-80
2022/09/16 10:50:25;;;;;;;16.48;2.30;;;;;;;19.56;61.18;99524.50;4855893;28;121327;-82
2022/09/16 10:52:52;;;;;;;22.30;2.50;;;;;;;19.58;61.55;99522.69;4841482;28;122801;-78
2022/09/16 10:55:18;;;;;;;13.67;2.30;;;;;;;19.68;60.15;99514.63;4839804;28;120745;-81
2022/09/16 10:57:45;;;;;;;14.17;2.40;;;;;;;19.63;60.31;99513.47;4833338;28;120297;-81
2022/09/16 11:00:13;;;;;;;23.60;3.13;;;;;;;19.61;60.39;99516.03;4858528;28;120239;-79
2022/09/16 11:03:03;;;;;;;25.13;2.97;;;;;;;19.63;60.38;99512.72;4841096;28;120542;-81
2022/09/16 11:05:40;;;;;;;20.17;2.72;;;;;;;19.63;61.10;99507.91;4842252;28;122355;-79
2022/09/16 11:08:15;;;;;;;19.43;3.40;;;;;;;19.68;61.57;99505.53;4848766;28;122545;-80
2022/09/16 11:10:47;;;;;;;15.10;2.33;;;;;;;19.77;60.54;99508.59;4827189;28;120558;-81
2022/09/16 11:13:25;;;;;;;25.52;3.42;;;;;;;19.86;60.64;99496.22;4827287;28;120459;-80
2022/09/16 11:16:22;;;;;;;16.20;2.40;;;;;;;19.88;59.93;99493.69;4841809;28;120397;-82
2022/09/16 11:19:13;;;;;;;14.57;2.47;;;;;;;19.76;59.36;99489.66;4841517;28;121259;-82
2022/09/16 11:22:05;;;;;;;19.13;2.60;;;;;;;19.62;60.14;99488.97;4863053;28;121100;-82
2022/09/16 11:24:55;;;;;;;23.40;3.15;;;;;;;19.53;61.62;99506.88;4843205;28;120886;-80
2022/09/16 11:27:49;;;;;;;20.10;2.85;;;;;;;19.41;62.73;99494.50;4844227;28;120727;-81
2022/09/16 11:30:23;;;;;;;22.50;2.95;;;;;;;19.32;63.77;99484.56;4843528;28;120727;-81
2022/09/16 11:33:28;;;;;;;16.20;2.63;;;;;;;19.28;64.43;99483.41;4860233;28;121472;-80
2022/09/16 11:36:21;;;;;;;19.40;2.97;;;;;;;19.34;64.95;99478.47;4837745;28;120340;-80
2022/09/16 11:39:07;;;;;;;22.63;2.97;;;;;;;19.40;64.43;99467.97;4859013;28;121697;-80
2022/09/16 11:41:49;;;;;;;15.27;2.47;;;;;;;19.38;64.06;99461.44;4830458;28;121130;-80
2022/09/16 11:44:42;;;;;;;28.92;3.13;;;;;;;19.40;64.53;99473.53;4829853;28;122134;-81
2022/09/16 11:47:23;;;;;;;25.25;3.30;;;;;;;19.41;64.32;99469.47;4862989;28;122318;-80
2022/09/16 11:50:07;;;;;;;26.05;2.85;;;;;;;19.47;64.86;99455.44;4827524;28;120968;-80